Time;durP1;ratioP1;P1;durP2;ratioP2;P2;SDS_P1;SDS_P2;PMS_P1;PMS_P2;Temp;Humidity;BMP_temperature;BMP_pressure;BME280_temperature;BME280_humidity;BME280_pressure;Samples;Min_cycle;Max_cycle;Signal;HPM_P1;HPM_P2
2020/12/10 00:02:09;;;;;;;30.90;18.30;;;;;;;0.79;100.00;96015.78;5011818;28;20253;-76
2020/12/10 00:04:35;;;;;;;29.07;17.07;;;;;;;0.38;100.00;96012.22;5011772;28;20183;-75
2020/12/10 00:07:00;;;;;;;30.97;18.00;;;;;;;0.40;100.00;96012.81;5010843;28;20195;-75
2020/12/10 00:09:25;;;;;;;28.23;17.73;;;;;;;0.66;100.00;96009.72;5011691;28;20675;-75
2020/12/10 00:11:51;;;;;;;30.43;17.50;;;;;;;0.46;100.00;96012.09;5010915;28;20271;-75
2020/12/10 00:14:16;;;;;;;26.77;17.07;;;;;;;0.44;100.00;96005.53;5011644;28;20179;-75
2020/12/10 00:16:46;;;;;;;26.30;16.87;;;;;;;0.25;100.00;96005.13;4999645;28;20230;-74
2020/12/10 00:19:12;;;;;;;28.33;17.07;;;;;;;0.47;100.00;96000.81;5011728;28;20214;-74
2020/12/10 00:21:37;;;;;;;26.80;17.40;;;;;;;0.82;100.00;96001.75;5010638;28;20353;-74
2020/12/10 00:24:03;;;;;;;29.07;18.20;;;;;;;0.60;100.00;95997.56;5010578;28;20183;-74
2020/12/10 00:26:28;;;;;;;31.47;17.80;;;;;;;0.72;100.00;95999.47;5010346;28;20175;-74
2020/12/10 00:28:54;;;;;;;27.40;17.23;;;;;;;0.69;99.94;95994.69;5010342;28;20183;-73
2020/12/10 00:31:19;;;;;;;26.27;16.57;;;;;;;0.41;100.00;96001.53;5010056;28;20199;-73
2020/12/10 00:33:44;;;;;;;31.40;17.10;;;;;;;0.18;100.00;95999.09;5011904;28;20574;-74
2020/12/10 00:36:13;;;;;;;31.43;19.10;;;;;;;0.35;100.00;95987.59;5011069;28;20270;-73
2020/12/10 00:38:38;;;;;;;27.90;17.00;;;;;;;0.37;100.00;95985.66;5010300;28;20583;-74
2020/12/10 00:41:04;;;;;;;30.30;17.57;;;;;;;0.26;100.00;95978.41;5016517;28;20269;-74
2020/12/10 00:43:30;;;;;;;28.07;16.83;;;;;;;0.38;100.00;95982.09;5010809;28;20258;-75
2020/12/10 00:46:02;;;;;;;28.63;17.73;;;;;;;0.37;100.00;95977.91;5021688;28;20191;-75
2020/12/10 00:48:27;;;;;;;28.97;17.40;;;;;;;0.44;100.00;95974.59;5011545;28;20212;-74
2020/12/10 00:50:52;;;;;;;31.60;18.47;;;;;;;0.46;100.00;95970.84;5012658;28;20218;-74
2020/12/10 00:53:18;;;;;;;29.53;17.73;;;;;;;0.38;100.00;95971.78;5014554;28;20175;-75
2020/12/10 00:55:43;;;;;;;27.60;17.27;;;;;;;0.56;100.00;95963.59;5020569;28;20184;-74
2020/12/10 00:58:09;;;;;;;32.70;18.80;;;;;;;0.58;100.00;95960.84;5015167;28;20215;-73
2020/12/10 01:00:34;;;;;;;31.67;17.80;;;;;;;0.75;98.57;95965.56;5014226;28;20636;-74
2020/12/10 01:02:59;;;;;;;30.37;17.87;;;;;;;0.58;99.49;95964.22;5012683;28;20847;-74
2020/12/10 01:05:25;;;;;;;26.87;16.57;;;;;;;0.46;99.25;95976.00;5013755;28;20187;-74
2020/12/10 01:07:50;;;;;;;28.30;17.47;;;;;;;0.39;100.00;95975.94;5012594;28;20201;-74
2020/12/10 01:10:16;;;;;;;32.20;17.80;;;;;;;0.60;99.51;95974.38;5014377;28;20195;-74
2020/12/10 01:12:41;;;;;;;31.13;17.57;;;;;;;0.53;98.92;95970.91;5013111;28;20191;-74
2020/12/10 01:15:07;;;;;;;26.40;16.53;;;;;;;0.29;100.00;95972.06;5014210;28;20222;-73
2020/12/10 01:17:33;;;;;;;31.13;18.27;;;;;;;0.55;99.57;95967.19;4995473;28;20211;-74
2020/12/10 01:19:58;;;;;;;29.00;17.57;;;;;;;0.29;100.00;95977.22;5013866;28;20198;-75
2020/12/10 01:22:23;;;;;;;28.93;17.13;;;;;;;0.53;100.00;95970.91;5010842;28;20676;-74
2020/12/10 01:24:49;;;;;;;28.47;16.80;;;;;;;0.43;100.00;95962.69;5012961;28;20249;-74
2020/12/10 01:27:14;;;;;;;28.23;17.47;;;;;;;0.51;98.63;95973.69;4998366;28;20214;-74
2020/12/10 01:29:41;;;;;;;33.57;17.57;;;;;;;0.45;99.66;95976.97;5022460;28;20195;-73
2020/12/10 01:32:10;;;;;;;28.67;17.27;;;;;;;0.33;100.00;95970.75;5011951;28;20199;-74
2020/12/10 01:34:36;;;;;;;29.83;16.80;;;;;;;0.00;100.00;95963.44;5012104;28;20656;-73
2020/12/10 01:37:01;;;;;;;32.00;16.97;;;;;;;0.12;100.00;95958.59;5013138;28;20270;-74
2020/12/10 01:39:27;;;;;;;31.00;17.67;;;;;;;0.53;100.00;95952.88;5014225;28;20667;-73
2020/12/10 01:41:52;;;;;;;28.87;16.97;;;;;;;0.32;100.00;95959.63;5012795;28;20246;-73
2020/12/10 01:44:18;;;;;;;28.10;16.53;;;;;;;0.13;100.00;95949.91;5012677;28;20587;-73
2020/12/10 01:46:44;;;;;;;26.10;15.80;;;;;;;0.25;100.00;95948.44;4993853;28;20195;-74
2020/12/10 01:49:10;;;;;;;26.87;16.07;;;;;;;0.31;100.00;95944.34;4998010;28;20187;-74
2020/12/10 01:51:36;;;;;;;28.87;16.17;;;;;;;0.40;99.99;95944.03;5013685;28;20221;-73
2020/12/10 01:54:04;;;;;;;26.87;16.20;;;;;;;0.55;99.22;95949.16;5003687;28;20195;-73
2020/12/10 01:56:29;;;;;;;24.47;15.60;;;;;;;0.55;98.27;95940.63;5025020;28;20329;-74
2020/12/10 01:58:55;;;;;;;30.70;17.00;;;;;;;0.22;99.62;95933.38;5011842;28;20263;-74
2020/12/10 02:01:21;;;;;;;26.10;16.17;;;;;;;0.32;99.90;95935.63;5011357;28;20211;-73
2020/12/10 02:03:47;;;;;;;25.67;15.97;;;;;;;0.30;98.30;95930.66;5012894;28;20191;-74
2020/12/10 02:06:12;;;;;;;25.53;15.63;;;;;;;0.28;100.00;95934.41;5013432;28;20198;-73
2020/12/10 02:08:41;;;;;;;23.53;14.80;;;;;;;0.17;100.00;95929.75;5012852;28;20183;-74
2020/12/10 02:11:11;;;;;;;25.00;15.13;;;;;;;0.27;99.93;95925.09;5010348;28;20214;-74
2020/12/10 02:13:37;;;;;;;23.20;14.30;;;;;;;0.43;99.93;95927.41;5013374;28;20258;-74
2020/12/10 02:16:03;;;;;;;24.43;15.40;;;;;;;0.39;99.37;95926.19;5011779;28;20380;-75
2020/12/10 02:18:29;;;;;;;23.93;14.87;;;;;;;0.48;98.44;95926.84;5013175;28;20183;-74
2020/12/10 02:20:54;;;;;;;25.33;15.47;;;;;;;0.60;96.91;95920.22;5012131;28;20283;-74
2020/12/10 02:23:20;;;;;;;25.97;14.87;;;;;;;0.33;98.07;95912.28;4999519;28;20667;-72
2020/12/10 02:25:45;;;;;;;25.60;14.63;;;;;;;0.26;98.78;95920.91;5012179;28;20659;-74
2020/12/10 02:28:13;;;;;;;22.87;14.53;;;;;;;0.38;98.60;95909.94;5011524;28;20191;-74
2020/12/10 02:30:40;;;;;;;24.87;15.30;;;;;;;0.50;97.59;95909.44;5012094;28;20195;-74
2020/12/10 02:33:07;;;;;;;24.93;14.80;;;;;;;0.59;98.45;95900.59;5011836;28;20214;-73
2020/12/10 02:35:34;;;;;;;22.90;14.47;;;;;;;0.54;97.87;95902.91;5012549;28;20638;-73
2020/12/10 02:38:01;;;;;;;23.37;14.57;;;;;;;0.52;98.38;95910.84;5012281;28;20183;-75
2020/12/10 02:40:29;;;;;;;24.40;15.23;;;;;;;0.39;99.15;95903.78;5005953;28;20586;-74
2020/12/10 02:42:58;;;;;;;26.13;15.97;;;;;;;0.54;98.84;95903.72;5012120;28;20211;-73
2020/12/10 02:45:25;;;;;;;27.30;16.07;;;;;;;0.73;96.46;95897.09;5012950;28;20222;-73
2020/12/10 02:47:51;;;;;;;23.17;14.90;;;;;;;0.59;97.92;95892.84;5011772;28;20187;-74
2020/12/10 02:50:17;;;;;;;23.93;15.30;;;;;;;0.54;97.66;95885.69;5011491;28;20269;-74
2020/12/10 02:52:42;;;;;;;26.90;16.47;;;;;;;0.61;97.33;95875.41;5010964;28;20279;-74
2020/12/10 02:55:09;;;;;;;25.43;15.60;;;;;;;0.63;95.92;95871.66;5012096;28;20255;-73
2020/12/10 02:57:34;;;;;;;25.90;15.53;;;;;;;0.69;96.25;95875.28;5012236;28;20191;-74
2020/12/10 03:00:00;;;;;;;24.80;15.47;;;;;;;0.46;98.03;95875.50;5012108;28;20984;-73
2020/12/10 03:02:25;;;;;;;25.50;15.50;;;;;;;0.40;98.77;95873.66;5012028;28;20199;-74
2020/12/10 03:04:51;;;;;;;23.83;15.30;;;;;;;0.52;98.14;95866.22;5011158;28;20547;-74
2020/12/10 03:07:16;;;;;;;24.00;15.10;;;;;;;0.34;99.62;95862.31;5005505;28;20270;-73
2020/12/10 03:09:42;;;;;;;24.87;14.60;;;;;;;0.36;99.95;95862.13;5006946;28;20226;-74
2020/12/10 03:12:08;;;;;;;24.27;14.63;;;;;;;0.33;97.72;95860.72;5011518;28;20206;-74
2020/12/10 03:14:34;;;;;;;23.67;15.20;;;;;;;0.39;97.90;95857.38;5007024;28;20193;-74
2020/12/10 03:16:59;;;;;;;23.70;14.87;;;;;;;0.49;97.53;95856.28;5018015;28;20215;-74
2020/12/10 03:19:25;;;;;;;23.30;14.43;;;;;;;0.36;97.40;95855.19;5007038;28;20187;-74
2020/12/10 03:21:50;;;;;;;23.90;15.13;;;;;;;0.53;97.25;95852.34;5010561;28;20204;-74
2020/12/10 03:24:16;;;;;;;26.67;15.23;;;;;;;0.56;96.80;95844.25;5010883;28;20190;-74
2020/12/10 03:26:43;;;;;;;22.90;14.00;;;;;;;0.60;96.11;95845.47;5010917;28;20671;-74
2020/12/10 03:29:09;;;;;;;26.70;16.20;;;;;;;0.47;96.69;95837.63;5011886;28;20188;-74
2020/12/10 03:31:36;;;;;;;24.73;14.80;;;;;;;0.49;97.48;95836.47;5011524;28;20671;-74
2020/12/10 03:34:02;;;;;;;26.40;15.77;;;;;;;0.57;97.35;95835.50;5011296;28;20222;-74
2020/12/10 03:36:44;;;;;;;26.87;15.47;;;;;;;0.46;95.46;95830.88;5010808;28;20253;-74
2020/12/10 03:39:10;;;;;;;23.17;14.40;;;;;;;0.36;96.41;95833.78;5006197;28;20203;-73
2020/12/10 03:41:35;;;;;;;26.57;15.10;;;;;;;0.32;97.19;95827.41;5000025;28;20626;-74
2020/12/10 03:44:00;;;;;;;23.17;15.27;;;;;;;0.40;96.59;95816.94;5010903;28;20293;-76
2020/12/10 03:46:26;;;;;;;22.10;14.40;;;;;;;0.45;96.51;95819.00;4998482;28;20552;-76
2020/12/10 03:48:51;;;;;;;25.30;15.53;;;;;;;0.48;96.62;95819.41;5010713;28;20727;-75
2020/12/10 03:51:16;;;;;;;26.40;15.77;;;;;;;0.63;96.15;95820.09;5011092;28;20196;-74
2020/12/10 03:53:42;;;;;;;28.33;15.60;;;;;;;0.35;96.36;95806.41;5010993;28;20214;-74
2020/12/10 03:56:07;;;;;;;25.40;15.60;;;;;;;0.44;97.10;95805.31;5011755;28;20213;-75
2020/12/10 03:58:32;;;;;;;27.23;15.27;;;;;;;0.50;96.44;95812.28;5023665;28;20183;-75
2020/12/10 04:00:58;;;;;;;23.93;14.77;;;;;;;0.61;96.46;95816.13;5009834;28;20209;-74
2020/12/10 04:03:23;;;;;;;23.50;15.33;;;;;;;0.71;96.00;95811.44;5011636;28;20180;-74
2020/12/10 04:05:49;;;;;;;26.90;14.87;;;;;;;0.56;96.44;95810.75;5010603;28;20199;-75
2020/12/10 04:08:14;;;;;;;25.60;15.50;;;;;;;0.77;94.90;95811.47;5011746;28;20187;-75
2020/12/10 04:10:40;;;;;;;24.30;15.40;;;;;;;0.64;95.87;95805.44;5010696;28;20258;-75
2020/12/10 04:13:05;;;;;;;23.87;14.53;;;;;;;0.48;95.83;95814.25;5010453;28;20190;-74
2020/12/10 04:15:31;;;;;;;26.50;15.03;;;;;;;0.38;96.57;95817.16;5002181;28;20575;-73
2020/12/10 04:17:56;;;;;;;22.20;13.90;;;;;;;0.43;96.35;95810.63;5010326;28;20201;-74
2020/12/10 04:20:21;;;;;;;24.83;14.30;;;;;;;0.47;95.68;95806.69;5011543;28;20187;-73
2020/12/10 04:22:47;;;;;;;23.20;15.07;;;;;;;0.56;95.76;95808.16;5010240;28;20203;-73
2020/12/10 04:25:12;;;;;;;24.13;14.83;;;;;;;0.31;96.55;95797.47;5014185;28;20542;-73
2020/12/10 04:27:38;;;;;;;29.40;15.47;;;;;;;0.34;96.34;95797.88;5004303;28;20345;-73
2020/12/10 04:30:03;;;;;;;25.23;14.73;;;;;;;0.26;96.52;95798.03;5007417;28;20213;-73
2020/12/10 04:32:29;;;;;;;25.07;15.57;;;;;;;0.31;97.41;95793.13;5015188;28;20520;-73
2020/12/10 04:34:54;;;;;;;23.50;15.47;;;;;;;0.30;96.97;95796.66;5014122;28;20279;-73
2020/12/10 04:37:19;;;;;;;24.93;14.93;;;;;;;0.23;96.80;95792.44;5017741;28;20202;-73
2020/12/10 04:39:45;;;;;;;24.87;15.83;;;;;;;0.41;96.16;95793.56;5014354;28;20640;-73
2020/12/10 04:42:10;;;;;;;27.37;16.33;;;;;;;0.40;95.89;95793.75;5015014;28;20211;-73
2020/12/10 04:44:36;;;;;;;26.83;16.23;;;;;;;0.44;95.97;95795.00;5014600;28;20175;-73
2020/12/10 04:47:02;;;;;;;25.07;16.17;;;;;;;0.37;97.09;95800.09;5014504;28;20538;-73
2020/12/10 04:49:30;;;;;;;24.73;15.63;;;;;;;0.34;95.95;95797.06;4998597;28;20652;-72
2020/12/10 04:51:56;;;;;;;25.27;15.70;;;;;;;0.15;97.47;95800.31;5012873;28;20191;-72
2020/12/10 04:54:22;;;;;;;26.90;15.70;;;;;;;0.18;98.79;95795.56;5015084;28;20175;-73
2020/12/10 04:56:47;;;;;;;24.73;14.50;;;;;;;0.19;97.71;95789.44;5013584;28;20191;-73
2020/12/10 04:59:13;;;;;;;25.33;15.80;;;;;;;0.06;97.93;95789.34;5015150;28;20206;-73
2020/12/10 05:01:38;;;;;;;27.40;15.60;;;;;;;0.18;98.46;95790.44;5014250;28;20282;-73
2020/12/10 05:04:04;;;;;;;27.33;16.00;;;;;;;0.26;97.66;95786.94;5014803;28;20195;-74
2020/12/10 05:06:31;;;;;;;27.20;16.37;;;;;;;0.10;98.90;95782.84;5014429;28;20193;-74
2020/12/10 05:09:17;;;;;;;23.80;15.53;;;;;;;0.08;99.71;95786.56;5012409;28;20191;-74
2020/12/10 05:11:43;;;;;;;26.43;15.87;;;;;;;0.17;98.95;95772.59;5013667;28;20206;-74
2020/12/10 05:14:08;;;;;;;27.73;16.53;;;;;;;0.14;99.72;95780.69;5007089;28;20266;-74
2020/12/10 05:16:34;;;;;;;30.37;16.60;;;;;;;0.11;99.52;95778.50;5014255;28;20664;-73
2020/12/10 05:19:21;;;;;;;30.43;17.03;;;;;;;-0.13;100.00;95777.09;5011736;28;20187;-73
2020/12/10 05:22:13;;;;;;;25.83;15.57;;;;;;;0.05;100.00;95776.66;5013276;28;20831;-74
2020/12/10 05:24:38;;;;;;;26.77;16.40;;;;;;;0.04;100.00;95772.50;5008683;28;20279;-75
2020/12/10 05:27:18;;;;;;;26.13;16.27;;;;;;;0.01;100.00;95768.50;5013937;28;20270;-74
2020/12/10 05:29:43;;;;;;;29.03;16.63;;;;;;;-0.04;100.00;95771.63;5004329;28;20258;-74
2020/12/10 05:32:31;;;;;;;28.37;15.83;;;;;;;-0.10;100.00;95769.00;5014657;28;20318;-74
2020/12/10 05:34:57;;;;;;;29.57;17.37;;;;;;;0.04;100.00;95772.50;4980994;28;20921;-75
2020/12/10 05:37:29;;;;;;;26.50;16.00;;;;;;;0.15;98.97;95774.56;5014037;28;20274;-74
2020/12/10 05:39:59;;;;;;;26.63;15.77;;;;;;;0.04;99.69;95775.06;5013336;28;20314;-74
2020/12/10 05:42:33;;;;;;;26.10;15.97;;;;;;;-0.12;99.35;95770.97;5013890;28;20203;-74
2020/12/10 05:44:59;;;;;;;27.87;15.70;;;;;;;-0.14;100.00;95767.78;4997862;28;20883;-73
2020/12/10 05:47:28;;;;;;;27.67;15.23;;;;;;;0.11;100.00;95770.78;5013971;28;20258;-73
2020/12/10 05:49:55;;;;;;;25.50;15.50;;;;;;;0.10;100.00;95762.25;5018601;28;20262;-73
2020/12/10 05:52:29;;;;;;;33.07;16.63;;;;;;;0.44;99.78;95769.22;5013764;28;20211;-74
2020/12/10 05:54:56;;;;;;;29.50;16.30;;;;;;;0.40;99.32;95766.22;5003684;28;20519;-74
2020/12/10 05:57:22;;;;;;;30.37;16.23;;;;;;;0.14;100.00;95767.81;5013645;28;20632;-74
2020/12/10 05:59:48;;;;;;;29.90;16.63;;;;;;;0.29;99.85;95769.31;5012650;28;20183;-74
2020/12/10 06:02:14;;;;;;;29.37;16.67;;;;;;;0.26;100.00;95771.47;5013509;28;20203;-74
2020/12/10 06:04:39;;;;;;;22.83;14.00;;;;;;;0.27;98.16;95773.88;5012730;28;20193;-75
2020/12/10 06:07:10;;;;;;;23.57;14.10;;;;;;;0.21;97.93;95768.66;5011824;28;20187;-74
2020/12/10 06:09:38;;;;;;;24.70;15.47;;;;;;;0.40;96.36;95762.84;5013117;28;20190;-74
2020/12/10 06:12:05;;;;;;;23.37;14.80;;;;;;;0.29;96.76;95766.72;5012545;28;20193;-74
2020/12/10 06:14:31;;;;;;;25.63;15.47;;;;;;;0.40;96.61;95763.63;5012901;28;20648;-73
2020/12/10 06:17:10;;;;;;;22.40;14.10;;;;;;;0.30;96.87;95763.16;5011876;28;20230;-73
2020/12/10 06:19:37;;;;;;;26.43;14.37;;;;;;;0.37;96.10;95763.22;5013220;28;20259;-72
2020/12/10 06:22:25;;;;;;;29.90;13.90;;;;;;;0.25;97.17;95762.94;5012419;28;20218;-73
2020/12/10 06:24:52;;;;;;;23.30;14.40;;;;;;;0.06;98.34;95753.28;5012102;28;20267;-78
2020/12/10 06:27:26;;;;;;;26.10;14.87;;;;;;;-0.24;100.00;95752.66;5026276;28;20202;-75
2020/12/10 06:30:27;;;;;;;24.67;14.47;;;;;;;-0.17;100.00;95753.47;5019986;28;20179;-77
2020/12/10 06:32:52;;;;;;;24.13;14.30;;;;;;;0.08;99.54;95756.47;5003800;28;20194;-78
2020/12/10 06:35:36;;;;;;;26.90;15.80;;;;;;;0.31;97.40;95762.19;5002838;28;20659;-77
2020/12/10 06:38:05;;;;;;;22.67;14.33;;;;;;;0.21;97.59;95756.56;4997134;28;20191;-77
2020/12/10 06:40:35;;;;;;;26.83;15.57;;;;;;;0.24;98.15;95758.75;5012154;28;20685;-77
2020/12/10 06:43:03;;;;;;;25.70;14.20;;;;;;;0.08;98.67;95755.66;5010557;28;20573;-77
2020/12/10 06:45:57;;;;;;;30.83;16.03;;;;;;;-0.16;99.87;95755.09;5005513;28;20180;-77
2020/12/10 06:48:38;;;;;;;30.97;17.40;;;;;;;0.23;99.53;95766.66;5001479;28;20194;-74
2020/12/10 06:51:30;;;;;;;29.27;16.50;;;;;;;0.57;97.81;95763.34;5007478;28;20186;-77
2020/12/10 06:54:01;;;;;;;29.57;16.73;;;;;;;0.44;97.72;95766.66;4999218;28;20278;-78
2020/12/10 06:56:27;;;;;;;31.17;17.17;;;;;;;-0.05;100.00;95758.94;5003462;28;20192;-76
2020/12/10 06:58:56;;;;;;;34.53;18.00;;;;;;;0.00;100.00;95759.97;5006583;28;20187;-79
2020/12/10 07:01:38;;;;;;;32.00;18.63;;;;;;;-0.12;100.00;95761.47;5005376;28;20607;-77
2020/12/10 07:07:22;;;;;;;37.07;18.63;;;;;;;-0.02;100.00;95767.09;5011131;28;20290;-79
2020/12/10 07:09:59;;;;;;;28.90;16.90;;;;;;;0.32;100.00;95768.16;5002789;28;20191;-79
2020/12/10 07:12:27;;;;;;;33.90;18.13;;;;;;;0.47;98.84;95768.03;5006784;28;20241;-78
2020/12/10 07:15:15;;;;;;;30.60;16.83;;;;;;;0.45;98.60;95770.03;5010946;28;20714;-78
2020/12/10 07:17:47;;;;;;;32.27;18.03;;;;;;;0.55;97.56;95773.06;5011646;28;20187;-76
2020/12/10 07:20:14;;;;;;;34.43;17.80;;;;;;;0.61;98.08;95777.47;5012205;28;20266;-78
2020/12/10 07:22:40;;;;;;;31.57;17.63;;;;;;;0.45;98.60;95781.09;5011075;28;20214;-76
2020/12/10 07:25:05;;;;;;;31.07;18.07;;;;;;;0.27;98.89;95778.22;5009202;28;20191;-76
2020/12/10 07:27:32;;;;;;;34.03;18.00;;;;;;;0.25;99.54;95775.81;5009912;28;20214;-77
2020/12/10 07:30:01;;;;;;;33.13;17.87;;;;;;;0.57;98.51;95776.22;5001993;28;20203;-75
2020/12/10 07:32:27;;;;;;;36.13;19.10;;;;;;;0.60;97.85;95775.84;5011388;28;20180;-75
2020/12/10 07:34:52;;;;;;;32.73;18.03;;;;;;;0.40;98.67;95776.50;5010864;28;20195;-75
2020/12/10 07:37:24;;;;;;;31.53;18.20;;;;;;;0.69;98.49;95783.25;5011832;28;20190;-77
2020/12/10 07:39:50;;;;;;;33.20;18.20;;;;;;;0.86;96.61;95791.47;5009201;28;20199;-74
2020/12/10 07:42:19;;;;;;;27.60;16.77;;;;;;;0.76;96.41;95781.50;5011431;28;20211;-74
2020/12/10 07:44:45;;;;;;;30.17;16.43;;;;;;;0.83;95.74;95784.94;5010842;28;20183;-74
2020/12/10 07:47:12;;;;;;;32.17;17.43;;;;;;;0.81;96.00;95781.72;5012111;28;20193;-74
2020/12/10 07:49:38;;;;;;;30.73;17.93;;;;;;;0.70;96.51;95778.88;5011148;28;20275;-75
2020/12/10 07:52:07;;;;;;;30.30;17.10;;;;;;;0.83;96.00;95774.59;5010650;28;20233;-73
2020/12/10 07:54:51;;;;;;;31.60;17.20;;;;;;;0.84;96.39;95781.34;5011830;28;20187;-77
2020/12/10 07:57:31;;;;;;;27.07;15.23;;;;;;;0.75;95.35;95777.34;5010702;28;20202;-74
2020/12/10 08:00:03;;;;;;;27.30;15.70;;;;;;;0.51;96.34;95782.94;5010628;28;20797;-72
2020/12/10 08:02:54;;;;;;;27.70;15.67;;;;;;;0.69;95.83;95772.13;5011663;28;20201;-72
2020/12/10 08:05:19;;;;;;;28.40;15.93;;;;;;;0.82;96.52;95778.16;4998406;28;20259;-73
2020/12/10 08:07:50;;;;;;;28.97;16.37;;;;;;;0.97;95.98;95778.03;4998114;28;20272;-72
2020/12/10 08:10:34;;;;;;;28.77;16.77;;;;;;;1.24;95.19;95769.41;5015325;28;20187;-74
2020/12/10 08:13:11;;;;;;;27.63;16.47;;;;;;;1.26;95.22;95774.38;5006760;28;20263;-73
2020/12/10 08:15:38;;;;;;;30.97;16.83;;;;;;;0.80;95.26;95774.97;5011436;28;20223;-73
2020/12/10 08:18:05;;;;;;;25.33;15.70;;;;;;;1.17;94.60;95775.56;5011131;28;20179;-73
2020/12/10 08:20:55;;;;;;;31.07;16.77;;;;;;;1.26;93.93;95774.38;5003679;28;20187;-72
2020/12/10 08:23:20;;;;;;;27.63;16.73;;;;;;;1.37;93.62;95776.41;4998664;28;20191;-75
2020/12/10 08:25:49;;;;;;;31.23;17.30;;;;;;;1.32;93.00;95767.66;4994930;28;20198;-73
2020/12/10 08:28:15;;;;;;;29.63;16.33;;;;;;;1.35;93.16;95769.84;5011302;28;20203;-74
2020/12/10 08:30:51;;;;;;;21.10;13.53;;;;;;;1.43;91.36;95769.66;5001003;28;20202;-72
2020/12/10 08:33:17;;;;;;;28.20;15.27;;;;;;;1.49;92.06;95769.69;5019445;28;20629;-75
2020/12/10 08:35:44;;;;;;;25.83;14.90;;;;;;;1.08;92.87;95772.31;5011237;28;20183;-74
2020/12/10 08:38:26;;;;;;;26.17;15.37;;;;;;;1.18;92.87;95770.19;5011545;28;20318;-74
2020/12/10 08:41:02;;;;;;;26.97;15.67;;;;;;;1.23;93.05;95761.84;5010148;28;20203;-76
2020/12/10 08:43:28;;;;;;;26.07;15.03;;;;;;;1.28;92.48;95771.63;5011035;28;20259;-76
2020/12/10 08:45:53;;;;;;;30.17;16.47;;;;;;;1.48;91.73;95770.69;5007314;28;20272;-74
2020/12/10 08:48:27;;;;;;;23.53;14.23;;;;;;;1.55;90.81;95760.38;5002288;28;20230;-73
2020/12/10 08:50:55;;;;;;;29.60;16.50;;;;;;;1.50;91.42;95760.97;5009243;28;20628;-73
2020/12/10 08:53:21;;;;;;;22.93;14.13;;;;;;;1.29;90.61;95768.81;5011351;28;20270;-73
2020/12/10 08:55:57;;;;;;;22.10;14.20;;;;;;;1.35;90.79;95768.06;4999927;28;20556;-74
2020/12/10 08:58:28;;;;;;;23.10;14.37;;;;;;;1.39;90.65;95774.44;5005892;28;20183;-75
2020/12/10 09:00:55;;;;;;;21.00;12.87;;;;;;;1.50;89.65;95778.25;5009014;28;20732;-74
2020/12/10 09:03:23;;;;;;;19.47;12.53;;;;;;;1.40;89.35;95777.78;5007379;28;20334;-75
2020/12/10 09:05:50;;;;;;;18.13;11.60;;;;;;;1.52;88.62;95771.88;5005846;28;20278;-73
2020/12/10 09:08:36;;;;;;;16.60;11.03;;;;;;;1.48;88.01;95767.31;5011005;28;20218;-73
2020/12/10 09:11:02;;;;;;;16.97;10.57;;;;;;;0.89;89.46;95777.41;5010523;28;20226;-73
2020/12/10 09:13:31;;;;;;;16.03;10.83;;;;;;;1.40;86.62;95773.44;5014826;28;20233;-74
2020/12/10 09:15:58;;;;;;;13.00;9.33;;;;;;;1.42;87.62;95768.06;5002542;28;20231;-73
2020/12/10 09:18:24;;;;;;;13.70;9.00;;;;;;;1.71;84.53;95761.78;5007827;28;20179;-73
2020/12/10 09:20:58;;;;;;;16.67;10.80;;;;;;;1.42;87.02;95761.13;5013806;28;20174;-74
2020/12/10 09:23:28;;;;;;;13.33;8.67;;;;;;;1.54;85.33;95757.00;5014378;28;20266;-74
2020/12/10 09:25:54;;;;;;;14.20;9.37;;;;;;;1.74;85.29;95751.84;5013875;28;20195;-76
2020/12/10 09:28:19;;;;;;;14.10;9.47;;;;;;;1.95;84.93;95751.66;5013779;28;20198;-75
2020/12/10 09:30:45;;;;;;;13.93;9.83;;;;;;;1.94;85.25;95746.72;4996893;28;20226;-75
2020/12/10 09:33:11;;;;;;;18.07;10.20;;;;;;;1.91;85.50;95749.69;5013676;28;20230;-77
2020/12/10 09:35:37;;;;;;;18.13;11.47;;;;;;;2.25;84.37;95741.72;5013444;28;20203;-75
2020/12/10 09:38:03;;;;;;;18.83;12.03;;;;;;;2.28;85.51;95748.31;4996605;28;20195;-75
2020/12/10 09:40:29;;;;;;;17.13;11.17;;;;;;;2.35;84.87;95747.28;5013729;28;20238;-73
2020/12/10 09:42:55;;;;;;;14.67;10.27;;;;;;;2.34;84.60;95750.84;5012550;28;20203;-74
2020/12/10 09:45:21;;;;;;;13.93;9.50;;;;;;;2.46;83.49;95751.84;5014324;28;20607;-74
2020/12/10 09:47:47;;;;;;;13.63;8.90;;;;;;;2.55;83.76;95749.06;5012616;28;20196;-74
2020/12/10 09:50:23;;;;;;;14.53;9.60;;;;;;;2.77;83.16;95756.38;5013680;28;20195;-74
2020/12/10 09:52:58;;;;;;;16.70;10.10;;;;;;;2.70;83.09;95758.19;5012903;28;20171;-74
2020/12/10 09:58:07;;;;;;;16.50;10.40;;;;;;;2.84;82.93;95751.94;4995546;28;20611;-74
2020/12/10 10:00:34;;;;;;;18.93;11.33;;;;;;;2.82;83.27;95746.22;5013615;28;20180;-73
2020/12/10 10:02:59;;;;;;;17.30;11.17;;;;;;;2.82;83.08;95740.25;5012780;28;20590;-74
2020/12/10 10:05:24;;;;;;;16.40;11.07;;;;;;;2.78;83.23;95739.06;5013499;28;20187;-74
2020/12/10 10:07:50;;;;;;;16.43;11.13;;;;;;;2.60;83.60;95744.88;5012891;28;20636;-74
2020/12/10 10:10:16;;;;;;;17.90;12.07;;;;;;;2.64;84.40;95743.47;5013916;28;20183;-75
2020/12/10 10:12:41;;;;;;;18.83;11.57;;;;;;;2.74;85.09;95743.81;5012502;28;20195;-72
2020/12/10 10:15:07;;;;;;;19.70;12.90;;;;;;;2.91;84.05;95747.56;5013295;28;20189;-73
2020/12/10 10:17:32;;;;;;;19.60;12.93;;;;;;;2.90;84.66;95740.78;4984623;28;20226;-75
2020/12/10 10:19:57;;;;;;;20.73;13.37;;;;;;;2.96;84.83;95743.56;5012596;28;20822;-76
2020/12/10 10:22:25;;;;;;;18.53;11.53;;;;;;;2.93;85.36;95737.00;5012619;28;20204;-75
2020/12/10 10:24:50;;;;;;;21.20;12.67;;;;;;;3.06;84.50;95736.97;5011806;28;20865;-73
2020/12/10 10:27:16;;;;;;;16.63;11.77;;;;;;;2.83;83.43;95736.66;5017750;28;20347;-74
2020/12/10 10:29:41;;;;;;;16.80;11.37;;;;;;;2.99;82.68;95727.63;5012455;28;20262;-72
2020/12/10 10:32:07;;;;;;;17.53;11.30;;;;;;;3.01;83.26;95733.41;5012664;28;20195;-72
2020/12/10 10:34:33;;;;;;;17.60;11.37;;;;;;;3.11;82.23;95734.56;5011910;28;20610;-72
2020/12/10 10:36:58;;;;;;;18.33;12.17;;;;;;;3.01;82.09;95730.81;5012041;28;20444;-71
2020/12/10 10:39:24;;;;;;;17.27;11.67;;;;;;;2.93;82.15;95731.84;5012613;28;20187;-71
2020/12/10 10:41:50;;;;;;;16.07;11.30;;;;;;;2.91;82.15;95732.03;5003194;28;20206;-72
2020/12/10 10:44:17;;;;;;;18.47;11.03;;;;;;;2.68;82.96;95728.31;5005402;28;20175;-71
2020/12/10 10:46:43;;;;;;;19.77;12.23;;;;;;;2.76;82.91;95728.09;5005750;28;20226;-71
2020/12/10 10:49:08;;;;;;;19.80;12.63;;;;;;;2.85;83.49;95726.88;5012372;28;20219;-72
2020/12/10 10:51:39;;;;;;;15.03;10.50;;;;;;;2.77;84.67;95725.31;5011672;28;20191;-71
2020/12/10 10:54:05;;;;;;;18.97;11.83;;;;;;;2.99;83.82;95725.06;4981515;28;20262;-70
2020/12/10 10:56:30;;;;;;;19.00;12.67;;;;;;;3.06;82.73;95720.66;5007143;28;20183;-70
2020/12/10 10:58:57;;;;;;;19.10;13.00;;;;;;;2.98;82.93;95726.03;5011791;28;20219;-71
2020/12/10 11:01:29;;;;;;;19.37;13.07;;;;;;;2.96;83.15;95712.50;5012046;28;20199;-71
2020/12/10 11:03:55;;;;;;;23.60;14.70;;;;;;;3.08;83.24;95718.63;5011541;28;20183;-72
2020/12/10 11:06:21;;;;;;;26.07;15.93;;;;;;;2.93;84.10;95717.09;5012092;28;20233;-72
2020/12/10 11:09:03;;;;;;;25.50;15.90;;;;;;;2.88;84.73;95714.34;5011083;28;20191;-70
2020/12/10 11:11:28;;;;;;;23.60;15.13;;;;;;;2.92;83.78;95717.31;4996121;28;20186;-71
2020/12/10 11:13:53;;;;;;;24.93;15.00;;;;;;;2.82;84.75;95719.53;5011608;28;20262;-70
2020/12/10 11:16:21;;;;;;;24.53;15.43;;;;;;;2.85;85.73;95714.75;5007200;28;20306;-71
2020/12/10 11:18:46;;;;;;;24.90;15.50;;;;;;;2.93;85.41;95711.94;5011498;28;20199;-71
2020/12/10 11:21:17;;;;;;;29.50;16.73;;;;;;;3.03;84.48;95715.88;5010327;28;20207;-71
2020/12/10 11:24:02;;;;;;;25.67;16.40;;;;;;;3.12;83.72;95718.00;5010693;28;20218;-70
2020/12/10 11:26:28;;;;;;;26.30;16.93;;;;;;;3.06;84.53;95718.84;5011692;28;20179;-70
2020/12/10 11:28:53;;;;;;;22.50;14.43;;;;;;;3.22;83.36;95720.19;5010624;28;20187;-70
2020/12/10 11:31:19;;;;;;;23.83;14.87;;;;;;;2.98;82.31;95713.09;5012166;28;20198;-70
2020/12/10 11:33:45;;;;;;;24.30;14.20;;;;;;;2.92;83.21;95709.53;4997143;28;20187;-70
2020/12/10 11:36:10;;;;;;;29.43;15.73;;;;;;;2.45;83.92;95721.81;5011752;28;20187;-70